sensor_id;sensor_type;location;lat;lon;timestamp;P1;durP1;ratioP1;P2;durP2;ratioP2
72951;SDS011;61102;51.956;5.878;2022-08-21T00:00:08;2.38;;;0.70;;
72951;SDS011;61102;51.956;5.878;2022-08-21T00:02:44;3.58;;;0.60;;
72951;SDS011;61102;51.956;5.878;2022-08-21T00:05:16;2.97;;;0.70;;
72951;SDS011;61102;51.956;5.878;2022-08-21T00:07:43;3.08;;;0.70;;
72951;SDS011;61102;51.956;5.878;2022-08-21T00:10:09;3.72;;;0.75;;
72951;SDS011;61102;51.956;5.878;2022-08-21T00:12:35;2.58;;;0.80;;
72951;SDS011;61102;51.956;5.878;2022-08-21T00:15:03;2.40;;;0.73;;
72951;SDS011;61102;51.956;5.878;2022-08-21T00:17:31;1.80;;;0.50;;
72951;SDS011;61102;51.956;5.878;2022-08-21T00:19:57;1.85;;;0.60;;
72951;SDS011;61102;51.956;5.878;2022-08-21T00:22:23;1.65;;;0.65;;
72951;SDS011;61102;51.956;5.878;2022-08-21T00:24:49;2.88;;;0.82;;
72951;SDS011;61102;51.956;5.878;2022-08-21T00:27:15;1.55;;;0.70;;
72951;SDS011;61102;51.956;5.878;2022-08-21T00:29:41;2.80;;;0.63;;
72951;SDS011;61102;51.956;5.878;2022-08-21T00:32:07;2.42;;;0.70;;
72951;SDS011;61102;51.956;5.878;2022-08-21T00:34:33;2.80;;;0.60;;
72951;SDS011;61102;51.956;5.878;2022-08-21T00:36:59;2.10;;;0.55;;
72951;SDS011;61102;51.956;5.878;2022-08-21T00:39:25;1.77;;;0.70;;
72951;SDS011;61102;51.956;5.878;2022-08-21T00:41:51;3.30;;;0.82;;
72951;SDS011;61102;51.956;5.878;2022-08-21T00:44:17;3.13;;;0.70;;
72951;SDS011;61102;51.956;5.878;2022-08-21T00:46:43;2.47;;;0.75;;
72951;SDS011;61102;51.956;5.878;2022-08-21T00:49:10;2.58;;;0.68;;
72951;SDS011;61102;51.956;5.878;2022-08-21T00:51:39;1.40;;;0.55;;
72951;SDS011;61102;51.956;5.878;2022-08-21T00:54:13;1.58;;;0.70;;
72951;SDS011;61102;51.956;5.878;2022-08-21T00:56:40;2.53;;;0.70;;
72951;SDS011;61102;51.956;5.878;2022-08-21T00:59:07;2.03;;;0.57;;
72951;SDS011;61102;51.956;5.878;2022-08-21T01:01:34;2.75;;;0.70;;
72951;SDS011;61102;51.956;5.878;2022-08-21T01:04:00;2.35;;;0.70;;
72951;SDS011;61102;51.956;5.878;2022-08-21T01:06:26;4.32;;;1.10;;
72951;SDS011;61102;51.956;5.878;2022-08-21T01:08:53;2.40;;;0.80;;
72951;SDS011;61102;51.956;5.878;2022-08-21T01:11:22;3.17;;;0.70;;
72951;SDS011;61102;51.956;5.878;2022-08-21T01:13:48;2.30;;;0.77;;
72951;SDS011;61102;51.956;5.878;2022-08-21T01:16:15;2.00;;;0.52;;
72951;SDS011;61102;51.956;5.878;2022-08-21T01:18:44;2.95;;;0.70;;
72951;SDS011;61102;51.956;5.878;2022-08-21T01:21:13;2.33;;;0.70;;
72951;SDS011;61102;51.956;5.878;2022-08-21T01:23:42;2.97;;;0.80;;
72951;SDS011;61102;51.956;5.878;2022-08-21T01:26:10;2.92;;;0.80;;
72951;SDS011;61102;51.956;5.878;2022-08-21T01:28:44;2.20;;;0.75;;
72951;SDS011;61102;51.956;5.878;2022-08-21T01:31:15;3.15;;;0.65;;
72951;SDS011;61102;51.956;5.878;2022-08-21T01:33:45;2.10;;;0.65;;
72951;SDS011;61102;51.956;5.878;2022-08-21T01:36:11;1.90;;;0.70;;
72951;SDS011;61102;51.956;5.878;2022-08-21T01:38:37;2.13;;;0.60;;
72951;SDS011;61102;51.956;5.878;2022-08-21T01:41:03;2.35;;;0.60;;
72951;SDS011;61102;51.956;5.878;2022-08-21T01:43:29;1.48;;;0.50;;
72951;SDS011;61102;51.956;5.878;2022-08-21T01:45:55;2.35;;;0.73;;
72951;SDS011;61102;51.956;5.878;2022-08-21T01:48:21;2.17;;;0.70;;
72951;SDS011;61102;51.956;5.878;2022-08-21T01:50:47;1.35;;;0.55;;
72951;SDS011;61102;51.956;5.878;2022-08-21T01:53:13;2.10;;;0.80;;
72951;SDS011;61102;51.956;5.878;2022-08-21T01:58:07;2.13;;;0.60;;
72951;SDS011;61102;51.956;5.878;2022-08-21T02:00:33;2.10;;;0.70;;
72951;SDS011;61102;51.956;5.878;2022-08-21T02:02:59;2.05;;;0.75;;
72951;SDS011;61102;51.956;5.878;2022-08-21T02:05:25;3.63;;;0.90;;
72951;SDS011;61102;51.956;5.878;2022-08-21T02:07:52;3.13;;;0.85;;
72951;SDS011;61102;51.956;5.878;2022-08-21T02:10:21;2.70;;;0.80;;
72951;SDS011;61102;51.956;5.878;2022-08-21T02:12:48;4.05;;;1.08;;
72951;SDS011;61102;51.956;5.878;2022-08-21T02:15:15;2.80;;;0.90;;
72951;SDS011;61102;51.956;5.878;2022-08-21T02:20:20;2.53;;;0.68;;
72951;SDS011;61102;51.956;5.878;2022-08-21T02:22:54;2.70;;;0.70;;
72951;SDS011;61102;51.956;5.878;2022-08-21T02:25:21;2.00;;;0.70;;
72951;SDS011;61102;51.956;5.878;2022-08-21T02:27:48;1.88;;;0.63;;
72951;SDS011;61102;51.956;5.878;2022-08-21T02:30:17;2.58;;;0.77;;
72951;SDS011;61102;51.956;5.878;2022-08-21T02:32:51;2.13;;;0.80;;
72951;SDS011;61102;51.956;5.878;2022-08-21T02:35:17;3.97;;;0.95;;
72951;SDS011;61102;51.956;5.878;2022-08-21T02:37:51;3.50;;;0.90;;
72951;SDS011;61102;51.956;5.878;2022-08-21T02:40:20;2.97;;;0.90;;
72951;SDS011;61102;51.956;5.878;2022-08-21T02:42:47;5.15;;;0.90;;
72951;SDS011;61102;51.956;5.878;2022-08-21T02:45:14;2.35;;;0.85;;
72951;SDS011;61102;51.956;5.878;2022-08-21T02:47:46;2.33;;;0.90;;
72951;SDS011;61102;51.956;5.878;2022-08-21T02:50:16;1.75;;;0.65;;
72951;SDS011;61102;51.956;5.878;2022-08-21T02:52:45;2.35;;;0.80;;
72951;SDS011;61102;51.956;5.878;2022-08-21T02:55:11;2.45;;;0.70;;
72951;SDS011;61102;51.956;5.878;2022-08-21T02:57:37;2.92;;;0.82;;
72951;SDS011;61102;51.956;5.878;2022-08-21T03:00:04;1.92;;;0.68;;
72951;SDS011;61102;51.956;5.878;2022-08-21T03:02:31;1.98;;;0.70;;
72951;SDS011;61102;51.956;5.878;2022-08-21T03:04:57;2.38;;;0.70;;
72951;SDS011;61102;51.956;5.878;2022-08-21T03:07:23;1.92;;;0.70;;
72951;SDS011;61102;51.956;5.878;2022-08-21T03:09:49;2.67;;;0.80;;
72951;SDS011;61102;51.956;5.878;2022-08-21T03:12:15;4.32;;;1.35;;
72951;SDS011;61102;51.956;5.878;2022-08-21T03:14:41;3.60;;;0.95;;
72951;SDS011;61102;51.956;5.878;2022-08-21T03:17:07;3.60;;;0.82;;
72951;SDS011;61102;51.956;5.878;2022-08-21T03:19:33;2.38;;;0.73;;
72951;SDS011;61102;51.956;5.878;2022-08-21T03:22:02;1.77;;;0.60;;
72951;SDS011;61102;51.956;5.878;2022-08-21T03:24:28;3.65;;;0.90;;
72951;SDS011;61102;51.956;5.878;2022-08-21T03:26:54;2.03;;;0.70;;
72951;SDS011;61102;51.956;5.878;2022-08-21T03:29:20;2.40;;;0.80;;
72951;SDS011;61102;51.956;5.878;2022-08-21T03:31:46;3.67;;;0.85;;
72951;SDS011;61102;51.956;5.878;2022-08-21T03:34:12;3.42;;;0.90;;
72951;SDS011;61102;51.956;5.878;2022-08-21T03:36:38;2.38;;;0.85;;
72951;SDS011;61102;51.956;5.878;2022-08-21T03:39:04;1.98;;;0.60;;
72951;SDS011;61102;51.956;5.878;2022-08-21T03:41:30;1.90;;;0.70;;
72951;SDS011;61102;51.956;5.878;2022-08-21T03:43:56;2.78;;;0.70;;
72951;SDS011;61102;51.956;5.878;2022-08-21T03:46:22;2.60;;;0.82;;
72951;SDS011;61102;51.956;5.878;2022-08-21T03:48:49;2.78;;;0.77;;
72951;SDS011;61102;51.956;5.878;2022-08-21T03:51:15;2.55;;;0.70;;
72951;SDS011;61102;51.956;5.878;2022-08-21T03:53:41;2.95;;;1.00;;
72951;SDS011;61102;51.956;5.878;2022-08-21T03:56:07;2.10;;;0.70;;
72951;SDS011;61102;51.956;5.878;2022-08-21T03:58:33;3.15;;;0.80;;
72951;SDS011;61102;51.956;5.878;2022-08-21T04:00:59;2.38;;;0.77;;
72951;SDS011;61102;51.956;5.878;2022-08-21T04:03:26;2.50;;;0.90;;
72951;SDS011;61102;51.956;5.878;2022-08-21T04:05:53;5.55;;;1.73;;
72951;SDS011;61102;51.956;5.878;2022-08-21T04:08:19;4.05;;;1.45;;
72951;SDS011;61102;51.956;5.878;2022-08-21T04:10:46;3.38;;;1.08;;
72951;SDS011;61102;51.956;5.878;2022-08-21T04:13:14;4.60;;;1.30;;
72951;SDS011;61102;51.956;5.878;2022-08-21T04:15:40;3.47;;;0.90;;
72951;SDS011;61102;51.956;5.878;2022-08-21T04:18:06;4.55;;;1.00;;
72951;SDS011;61102;51.956;5.878;2022-08-21T04:20:34;3.55;;;1.13;;
72951;SDS011;61102;51.956;5.878;2022-08-21T04:23:00;4.03;;;1.08;;
72951;SDS011;61102;51.956;5.878;2022-08-21T04:25:28;3.13;;;1.00;;
72951;SDS011;61102;51.956;5.878;2022-08-21T04:27:54;2.72;;;0.80;;
72951;SDS011;61102;51.956;5.878;2022-08-21T04:30:20;3.22;;;0.90;;
72951;SDS011;61102;51.956;5.878;2022-08-21T04:32:48;2.00;;;0.63;;
72951;SDS011;61102;51.956;5.878;2022-08-21T04:35:16;2.90;;;0.85;;
72951;SDS011;61102;51.956;5.878;2022-08-21T04:37:47;1.40;;;0.70;;
72951;SDS011;61102;51.956;5.878;2022-08-21T04:40:14;2.05;;;0.73;;
72951;SDS011;61102;51.956;5.878;2022-08-21T04:42:47;2.85;;;0.80;;
72951;SDS011;61102;51.956;5.878;2022-08-21T04:45:19;3.38;;;1.13;;
72951;SDS011;61102;51.956;5.878;2022-08-21T04:47:48;3.47;;;1.10;;
72951;SDS011;61102;51.956;5.878;2022-08-21T04:50:15;2.25;;;0.90;;
72951;SDS011;61102;51.956;5.878;2022-08-21T04:52:52;2.42;;;0.80;;
72951;SDS011;61102;51.956;5.878;2022-08-21T04:55:22;2.95;;;0.90;;
72951;SDS011;61102;51.956;5.878;2022-08-21T04:57:50;4.05;;;1.20;;
72951;SDS011;61102;51.956;5.878;2022-08-21T05:00:19;6.22;;;0.90;;
72951;SDS011;61102;51.956;5.878;2022-08-21T05:02:46;2.42;;;0.85;;
72951;SDS011;61102;51.956;5.878;2022-08-21T05:05:14;2.03;;;0.80;;
72951;SDS011;61102;51.956;5.878;2022-08-21T05:07:41;2.28;;;0.80;;
72951;SDS011;61102;51.956;5.878;2022-08-21T05:10:09;3.55;;;0.70;;
72951;SDS011;61102;51.956;5.878;2022-08-21T05:12:35;2.80;;;1.10;;
72951;SDS011;61102;51.956;5.878;2022-08-21T05:15:02;2.88;;;1.00;;
72951;SDS011;61102;51.956;5.878;2022-08-21T05:17:29;3.10;;;1.10;;
72951;SDS011;61102;51.956;5.878;2022-08-21T05:19:55;2.75;;;0.93;;
72951;SDS011;61102;51.956;5.878;2022-08-21T05:22:21;3.47;;;1.13;;
72951;SDS011;61102;51.956;5.878;2022-08-21T05:24:50;2.47;;;0.90;;
72951;SDS011;61102;51.956;5.878;2022-08-21T05:27:16;3.58;;;1.10;;
72951;SDS011;61102;51.956;5.878;2022-08-21T05:29:42;3.63;;;1.00;;
72951;SDS011;61102;51.956;5.878;2022-08-21T05:32:12;2.80;;;0.90;;
72951;SDS011;61102;51.956;5.878;2022-08-21T05:34:39;3.03;;;1.02;;
72951;SDS011;61102;51.956;5.878;2022-08-21T05:37:05;2.97;;;1.08;;
72951;SDS011;61102;51.956;5.878;2022-08-21T05:39:31;2.67;;;1.00;;
72951;SDS011;61102;51.956;5.878;2022-08-21T05:41:58;5.57;;;1.25;;
72951;SDS011;61102;51.956;5.878;2022-08-21T05:44:24;2.92;;;0.98;;
72951;SDS011;61102;51.956;5.878;2022-08-21T05:46:55;4.75;;;1.30;;
72951;SDS011;61102;51.956;5.878;2022-08-21T05:49:21;3.28;;;1.10;;
72951;SDS011;61102;51.956;5.878;2022-08-21T05:51:47;4.68;;;1.30;;
72951;SDS011;61102;51.956;5.878;2022-08-21T05:54:13;2.75;;;1.00;;
72951;SDS011;61102;51.956;5.878;2022-08-21T05:56:39;5.07;;;1.75;;
72951;SDS011;61102;51.956;5.878;2022-08-21T05:59:05;6.32;;;2.17;;
72951;SDS011;61102;51.956;5.878;2022-08-21T06:01:31;6.90;;;1.70;;
72951;SDS011;61102;51.956;5.878;2022-08-21T06:03:57;4.57;;;1.42;;
72951;SDS011;61102;51.956;5.878;2022-08-21T06:06:23;4.80;;;1.45;;
72951;SDS011;61102;51.956;5.878;2022-08-21T06:08:49;4.80;;;1.50;;
72951;SDS011;61102;51.956;5.878;2022-08-21T06:11:15;4.38;;;1.73;;
72951;SDS011;61102;51.956;5.878;2022-08-21T06:13:41;5.53;;;1.65;;
72951;SDS011;61102;51.956;5.878;2022-08-21T06:16:16;4.50;;;1.52;;
72951;SDS011;61102;51.956;5.878;2022-08-21T06:18:43;5.70;;;1.88;;
72951;SDS011;61102;51.956;5.878;2022-08-21T06:21:11;7.57;;;2.17;;
72951;SDS011;61102;51.956;5.878;2022-08-21T06:23:38;6.10;;;2.00;;
72951;SDS011;61102;51.956;5.878;2022-08-21T06:26:08;5.57;;;1.63;;
72951;SDS011;61102;51.956;5.878;2022-08-21T06:28:35;5.10;;;1.35;;
72951;SDS011;61102;51.956;5.878;2022-08-21T06:31:10;5.75;;;1.60;;
72951;SDS011;61102;51.956;5.878;2022-08-21T06:33:37;6.65;;;1.70;;
72951;SDS011;61102;51.956;5.878;2022-08-21T06:36:03;6.50;;;1.83;;
72951;SDS011;61102;51.956;5.878;2022-08-21T06:38:30;7.40;;;1.50;;
72951;SDS011;61102;51.956;5.878;2022-08-21T06:40:56;7.05;;;2.10;;
72951;SDS011;61102;51.956;5.878;2022-08-21T06:43:22;5.82;;;1.42;;
72951;SDS011;61102;51.956;5.878;2022-08-21T06:45:48;6.13;;;1.77;;
72951;SDS011;61102;51.956;5.878;2022-08-21T06:48:14;6.28;;;1.58;;
72951;SDS011;61102;51.956;5.878;2022-08-21T06:50:40;6.03;;;1.60;;
72951;SDS011;61102;51.956;5.878;2022-08-21T06:53:07;7.03;;;1.70;;
72951;SDS011;61102;51.956;5.878;2022-08-21T06:55:35;6.20;;;1.75;;
72951;SDS011;61102;51.956;5.878;2022-08-21T06:58:03;7.40;;;1.60;;
72951;SDS011;61102;51.956;5.878;2022-08-21T07:05:24;7.90;;;1.95;;
72951;SDS011;61102;51.956;5.878;2022-08-21T07:07:51;5.88;;;1.83;;
72951;SDS011;61102;51.956;5.878;2022-08-21T07:10:17;8.93;;;1.98;;
72951;SDS011;61102;51.956;5.878;2022-08-21T07:12:43;6.07;;;1.70;;
72951;SDS011;61102;51.956;5.878;2022-08-21T07:15:09;8.55;;;2.20;;
72951;SDS011;61102;51.956;5.878;2022-08-21T07:17:36;8.32;;;2.35;;
72951;SDS011;61102;51.956;5.878;2022-08-21T07:20:03;7.97;;;1.55;;
72951;SDS011;61102;51.956;5.878;2022-08-21T07:22:30;7.03;;;1.67;;
72951;SDS011;61102;51.956;5.878;2022-08-21T07:24:56;6.35;;;1.40;;
72951;SDS011;61102;51.956;5.878;2022-08-21T07:27:22;7.85;;;1.95;;
72951;SDS011;61102;51.956;5.878;2022-08-21T07:29:48;7.32;;;1.77;;
72951;SDS011;61102;51.956;5.878;2022-08-21T07:32:17;5.75;;;1.40;;
72951;SDS011;61102;51.956;5.878;2022-08-21T07:34:43;7.90;;;1.63;;
72951;SDS011;61102;51.956;5.878;2022-08-21T07:37:09;6.75;;;1.50;;
72951;SDS011;61102;51.956;5.878;2022-08-21T07:39:35;5.35;;;1.15;;
72951;SDS011;61102;51.956;5.878;2022-08-21T07:42:01;6.20;;;1.65;;
72951;SDS011;61102;51.956;5.878;2022-08-21T07:44:29;4.82;;;1.35;;
72951;SDS011;61102;51.956;5.878;2022-08-21T07:46:55;6.90;;;1.52;;
72951;SDS011;61102;51.956;5.878;2022-08-21T07:49:21;7.88;;;1.88;;
72951;SDS011;61102;51.956;5.878;2022-08-21T07:51:47;8.43;;;1.85;;
72951;SDS011;61102;51.956;5.878;2022-08-21T07:54:13;9.55;;;1.90;;
72951;SDS011;61102;51.956;5.878;2022-08-21T07:56:39;5.25;;;1.30;;
72951;SDS011;61102;51.956;5.878;2022-08-21T07:59:05;7.45;;;1.42;;
72951;SDS011;61102;51.956;5.878;2022-08-21T08:01:31;5.43;;;1.40;;
72951;SDS011;61102;51.956;5.878;2022-08-21T08:03:57;6.47;;;1.60;;
72951;SDS011;61102;51.956;5.878;2022-08-21T08:06:23;6.78;;;1.55;;
72951;SDS011;61102;51.956;5.878;2022-08-21T08:08:49;8.68;;;1.80;;
72951;SDS011;61102;51.956;5.878;2022-08-21T08:11:15;7.40;;;1.52;;
72951;SDS011;61102;51.956;5.878;2022-08-21T08:13:43;6.38;;;1.58;;
72951;SDS011;61102;51.956;5.878;2022-08-21T08:16:12;7.65;;;1.63;;
72951;SDS011;61102;51.956;5.878;2022-08-21T08:18:38;9.48;;;2.00;;
72951;SDS011;61102;51.956;5.878;2022-08-21T08:21:05;8.13;;;1.60;;
72951;SDS011;61102;51.956;5.878;2022-08-21T08:23:31;8.13;;;1.63;;
72951;SDS011;61102;51.956;5.878;2022-08-21T08:25:58;6.25;;;1.23;;
72951;SDS011;61102;51.956;5.878;2022-08-21T08:28:24;6.20;;;1.30;;
72951;SDS011;61102;51.956;5.878;2022-08-21T08:30:53;5.45;;;1.23;;
72951;SDS011;61102;51.956;5.878;2022-08-21T08:33:19;7.63;;;1.50;;
72951;SDS011;61102;51.956;5.878;2022-08-21T08:35:47;6.13;;;1.30;;
72951;SDS011;61102;51.956;5.878;2022-08-21T08:38:15;9.45;;;2.00;;
72951;SDS011;61102;51.956;5.878;2022-08-21T08:43:36;7.97;;;1.65;;
72951;SDS011;61102;51.956;5.878;2022-08-21T08:46:03;9.07;;;1.63;;
72951;SDS011;61102;51.956;5.878;2022-08-21T08:48:39;8.18;;;1.92;;
72951;SDS011;61102;51.956;5.878;2022-08-21T08:51:19;7.63;;;1.40;;
72951;SDS011;61102;51.956;5.878;2022-08-21T08:54:07;6.25;;;1.50;;
72951;SDS011;61102;51.956;5.878;2022-08-21T08:56:36;6.75;;;1.15;;
72951;SDS011;61102;51.956;5.878;2022-08-21T08:59:07;7.28;;;1.60;;
72951;SDS011;61102;51.956;5.878;2022-08-21T09:01:39;6.85;;;1.30;;
72951;SDS011;61102;51.956;5.878;2022-08-21T09:04:05;6.50;;;1.20;;
72951;SDS011;61102;51.956;5.878;2022-08-21T09:06:48;8.63;;;1.30;;
72951;SDS011;61102;51.956;5.878;2022-08-21T09:09:48;10.35;;;2.05;;
72951;SDS011;61102;51.956;5.878;2022-08-21T09:12:33;7.38;;;1.20;;
72951;SDS011;61102;51.956;5.878;2022-08-21T09:15:18;7.13;;;1.30;;
72951;SDS011;61102;51.956;5.878;2022-08-21T09:17:59;5.22;;;1.08;;
72951;SDS011;61102;51.956;5.878;2022-08-21T09:26:26;3.80;;;0.77;;
72951;SDS011;61102;51.956;5.878;2022-08-21T09:29:00;5.82;;;1.05;;
72951;SDS011;61102;51.956;5.878;2022-08-21T09:31:28;6.88;;;0.98;;
72951;SDS011;61102;51.956;5.878;2022-08-21T09:33:57;8.18;;;1.30;;
72951;SDS011;61102;51.956;5.878;2022-08-21T09:36:33;7.95;;;1.35;;
72951;SDS011;61102;51.956;5.878;2022-08-21T09:39:10;7.60;;;1.50;;
72951;SDS011;61102;51.956;5.878;2022-08-21T09:41:38;6.50;;;1.20;;
72951;SDS011;61102;51.956;5.878;2022-08-21T09:44:06;4.65;;;0.90;;
72951;SDS011;61102;51.956;5.878;2022-08-21T09:46:34;5.60;;;0.95;;
72951;SDS011;61102;51.956;5.878;2022-08-21T09:49:02;7.20;;;1.20;;
72951;SDS011;61102;51.956;5.878;2022-08-21T09:51:33;5.47;;;0.90;;
72951;SDS011;61102;51.956;5.878;2022-08-21T09:56:34;3.15;;;0.63;;
72951;SDS011;61102;51.956;5.878;2022-08-21T10:01:58;8.02;;;1.02;;
72951;SDS011;61102;51.956;5.878;2022-08-21T10:04:36;5.72;;;0.90;;
72951;SDS011;61102;51.956;5.878;2022-08-21T10:07:06;8.60;;;1.20;;
72951;SDS011;61102;51.956;5.878;2022-08-21T10:09:34;6.68;;;0.95;;
72951;SDS011;61102;51.956;5.878;2022-08-21T10:20:12;5.03;;;0.68;;
72951;SDS011;61102;51.956;5.878;2022-08-21T10:22:46;4.90;;;0.80;;
72951;SDS011;61102;51.956;5.878;2022-08-21T10:25:44;5.25;;;0.80;;
72951;SDS011;61102;51.956;5.878;2022-08-21T10:31:00;7.05;;;1.00;;
72951;SDS011;61102;51.956;5.878;2022-08-21T10:36:46;2.28;;;0.32;;
72951;SDS011;61102;51.956;5.878;2022-08-21T10:47:57;4.03;;;0.73;;
72951;SDS011;61102;51.956;5.878;2022-08-21T10:58:36;3.38;;;0.50;;
72951;SDS011;61102;51.956;5.878;2022-08-21T11:09:56;3.08;;;0.50;;
72951;SDS011;61102;51.956;5.878;2022-08-21T11:12:40;4.65;;;0.75;;
72951;SDS011;61102;51.956;5.878;2022-08-21T11:18:01;3.33;;;0.70;;
72951;SDS011;61102;51.956;5.878;2022-08-21T11:20:46;4.97;;;0.93;;
72951;SDS011;61102;51.956;5.878;2022-08-21T11:23:31;4.60;;;0.77;;
72951;SDS011;61102;51.956;5.878;2022-08-21T11:26:14;5.97;;;0.80;;
72951;SDS011;61102;51.956;5.878;2022-08-21T11:28:51;4.25;;;0.70;;
72951;SDS011;61102;51.956;5.878;2022-08-21T11:31:48;6.03;;;0.80;;
72951;SDS011;61102;51.956;5.878;2022-08-21T11:37:23;4.43;;;0.70;;
72951;SDS011;61102;51.956;5.878;2022-08-21T11:42:58;8.75;;;1.30;;
72951;SDS011;61102;51.956;5.878;2022-08-21T11:45:52;6.57;;;0.82;;
72951;SDS011;61102;51.956;5.878;2022-08-21T11:48:28;4.55;;;0.70;;
72951;SDS011;61102;51.956;5.878;2022-08-21T11:50:56;4.93;;;1.00;;
72951;SDS011;61102;51.956;5.878;2022-08-21T11:56:17;4.85;;;0.77;;
72951;SDS011;61102;51.956;5.878;2022-08-21T11:58:48;4.70;;;0.90;;
72951;SDS011;61102;51.956;5.878;2022-08-21T12:01:25;5.15;;;0.85;;
72951;SDS011;61102;51.956;5.878;2022-08-21T12:04:02;3.30;;;0.68;;
72951;SDS011;61102;51.956;5.878;2022-08-21T12:06:39;3.45;;;0.50;;
72951;SDS011;61102;51.956;5.878;2022-08-21T12:12:00;2.70;;;0.57;;
72951;SDS011;61102;51.956;5.878;2022-08-21T12:14:43;3.80;;;0.60;;
72951;SDS011;61102;51.956;5.878;2022-08-21T12:17:34;4.30;;;0.60;;
72951;SDS011;61102;51.956;5.878;2022-08-21T12:20:26;4.43;;;0.68;;
72951;SDS011;61102;51.956;5.878;2022-08-21T12:26:00;2.40;;;0.40;;
72951;SDS011;61102;51.956;5.878;2022-08-21T12:28:29;5.40;;;1.20;;
72951;SDS011;61102;51.956;5.878;2022-08-21T12:30:57;6.53;;;0.88;;
72951;SDS011;61102;51.956;5.878;2022-08-21T12:36:06;5.38;;;0.80;;
72951;SDS011;61102;51.956;5.878;2022-08-21T12:38:50;4.53;;;0.50;;
72951;SDS011;61102;51.956;5.878;2022-08-21T12:41:32;5.72;;;0.80;;
72951;SDS011;61102;51.956;5.878;2022-08-21T12:44:16;3.67;;;0.80;;
72951;SDS011;61102;51.956;5.878;2022-08-21T12:46:50;4.03;;;0.80;;
72951;SDS011;61102;51.956;5.878;2022-08-21T12:52:05;2.78;;;0.40;;
72951;SDS011;61102;51.956;5.878;2022-08-21T12:54:48;5.15;;;0.75;;
72951;SDS011;61102;51.956;5.878;2022-08-21T12:57:24;5.03;;;0.70;;
72951;SDS011;61102;51.956;5.878;2022-08-21T12:59:57;4.47;;;0.70;;
72951;SDS011;61102;51.956;5.878;2022-08-21T13:02:30;5.13;;;0.77;;
72951;SDS011;61102;51.956;5.878;2022-08-21T13:05:04;3.47;;;0.60;;
72951;SDS011;61102;51.956;5.878;2022-08-21T13:07:34;2.97;;;0.60;;
72951;SDS011;61102;51.956;5.878;2022-08-21T13:10:06;3.20;;;0.70;;
72951;SDS011;61102;51.956;5.878;2022-08-21T13:12:42;3.03;;;0.50;;
72951;SDS011;61102;51.956;5.878;2022-08-21T13:15:08;4.38;;;0.70;;
72951;SDS011;61102;51.956;5.878;2022-08-21T13:20:08;4.57;;;0.73;;
72951;SDS011;61102;51.956;5.878;2022-08-21T13:22:44;3.15;;;0.50;;
72951;SDS011;61102;51.956;5.878;2022-08-21T13:25:11;4.13;;;0.70;;
72951;SDS011;61102;51.956;5.878;2022-08-21T13:27:39;3.55;;;0.60;;
72951;SDS011;61102;51.956;5.878;2022-08-21T13:30:11;2.78;;;0.50;;
72951;SDS011;61102;51.956;5.878;2022-08-21T13:32:44;4.53;;;0.70;;
72951;SDS011;61102;51.956;5.878;2022-08-21T13:35:17;6.00;;;0.80;;
72951;SDS011;61102;51.956;5.878;2022-08-21T13:37:46;4.65;;;0.70;;
72951;SDS011;61102;51.956;5.878;2022-08-21T13:40:15;3.38;;;0.60;;
72951;SDS011;61102;51.956;5.878;2022-08-21T13:43:03;3.35;;;0.57;;
72951;SDS011;61102;51.956;5.878;2022-08-21T13:45:36;4.13;;;0.70;;
72951;SDS011;61102;51.956;5.878;2022-08-21T13:48:02;2.33;;;0.45;;
72951;SDS011;61102;51.956;5.878;2022-08-21T13:50:28;4.60;;;0.70;;
72951;SDS011;61102;51.956;5.878;2022-08-21T13:55:23;3.40;;;0.45;;
72951;SDS011;61102;51.956;5.878;2022-08-21T13:58:00;4.28;;;0.60;;
72951;SDS011;61102;51.956;5.878;2022-08-21T14:00:29;3.72;;;0.57;;
72951;SDS011;61102;51.956;5.878;2022-08-21T14:06:37;3.53;;;0.60;;
72951;SDS011;61102;51.956;5.878;2022-08-21T14:09:00;3.50;;;0.60;;
72951;SDS011;61102;51.956;5.878;2022-08-21T14:11:34;3.80;;;0.60;;
72951;SDS011;61102;51.956;5.878;2022-08-21T14:14:03;3.00;;;0.60;;
72951;SDS011;61102;51.956;5.878;2022-08-21T14:16:46;2.75;;;0.50;;
72951;SDS011;61102;51.956;5.878;2022-08-21T14:19:40;3.20;;;0.47;;
72951;SDS011;61102;51.956;5.878;2022-08-21T14:22:22;4.95;;;0.73;;
72951;SDS011;61102;51.956;5.878;2022-08-21T14:24:48;2.78;;;0.50;;
72951;SDS011;61102;51.956;5.878;2022-08-21T14:27:17;2.90;;;0.60;;
72951;SDS011;61102;51.956;5.878;2022-08-21T14:29:43;3.30;;;0.65;;
72951;SDS011;61102;51.956;5.878;2022-08-21T14:32:14;3.92;;;0.50;;
72951;SDS011;61102;51.956;5.878;2022-08-21T14:34:53;5.18;;;0.80;;
72951;SDS011;61102;51.956;5.878;2022-08-21T14:37:19;3.60;;;0.60;;
72951;SDS011;61102;51.956;5.878;2022-08-21T14:39:46;3.80;;;0.43;;
72951;SDS011;61102;51.956;5.878;2022-08-21T14:42:12;4.60;;;0.70;;
72951;SDS011;61102;51.956;5.878;2022-08-21T14:47:07;4.25;;;0.80;;
72951;SDS011;61102;51.956;5.878;2022-08-21T14:49:34;4.07;;;0.63;;
72951;SDS011;61102;51.956;5.878;2022-08-21T14:52:00;4.63;;;0.70;;
72951;SDS011;61102;51.956;5.878;2022-08-21T14:54:27;3.92;;;0.80;;
72951;SDS011;61102;51.956;5.878;2022-08-21T14:56:54;3.65;;;0.70;;
72951;SDS011;61102;51.956;5.878;2022-08-21T14:59:22;4.05;;;0.63;;
72951;SDS011;61102;51.956;5.878;2022-08-21T15:01:48;4.70;;;0.80;;
72951;SDS011;61102;51.956;5.878;2022-08-21T15:04:15;4.80;;;0.82;;
72951;SDS011;61102;51.956;5.878;2022-08-21T15:06:41;4.63;;;0.85;;
72951;SDS011;61102;51.956;5.878;2022-08-21T15:09:07;3.90;;;0.85;;
72951;SDS011;61102;51.956;5.878;2022-08-21T15:11:33;2.95;;;0.50;;
72951;SDS011;61102;51.956;5.878;2022-08-21T15:14:00;4.05;;;0.80;;
72951;SDS011;61102;51.956;5.878;2022-08-21T15:16:28;3.45;;;0.68;;
72951;SDS011;61102;51.956;5.878;2022-08-21T15:18:57;3.22;;;0.50;;
72951;SDS011;61102;51.956;5.878;2022-08-21T15:21:23;4.82;;;0.85;;
72951;SDS011;61102;51.956;5.878;2022-08-21T15:23:49;2.83;;;0.70;;
72951;SDS011;61102;51.956;5.878;2022-08-21T15:26:15;2.38;;;0.60;;
72951;SDS011;61102;51.956;5.878;2022-08-21T15:28:41;4.18;;;0.60;;
72951;SDS011;61102;51.956;5.878;2022-08-21T15:31:08;5.00;;;0.80;;
72951;SDS011;61102;51.956;5.878;2022-08-21T15:33:34;4.47;;;0.80;;
72951;SDS011;61102;51.956;5.878;2022-08-21T15:36:00;3.97;;;0.60;;
72951;SDS011;61102;51.956;5.878;2022-08-21T15:38:26;5.28;;;0.70;;
72951;SDS011;61102;51.956;5.878;2022-08-21T15:40:52;5.90;;;0.90;;
72951;SDS011;61102;51.956;5.878;2022-08-21T15:43:25;3.83;;;0.80;;
72951;SDS011;61102;51.956;5.878;2022-08-21T15:46:00;3.15;;;0.68;;
72951;SDS011;61102;51.956;5.878;2022-08-21T15:48:27;6.00;;;0.80;;
72951;SDS011;61102;51.956;5.878;2022-08-21T15:50:53;4.03;;;0.70;;
72951;SDS011;61102;51.956;5.878;2022-08-21T15:53:19;4.20;;;0.63;;
72951;SDS011;61102;51.956;5.878;2022-08-21T15:55:45;4.20;;;0.80;;
72951;SDS011;61102;51.956;5.878;2022-08-21T15:58:14;2.78;;;0.60;;
72951;SDS011;61102;51.956;5.878;2022-08-21T16:00:42;5.60;;;0.93;;
72951;SDS011;61102;51.956;5.878;2022-08-21T16:03:10;4.05;;;0.80;;
72951;SDS011;61102;51.956;5.878;2022-08-21T16:05:43;7.28;;;1.17;;
72951;SDS011;61102;51.956;5.878;2022-08-21T16:08:10;5.55;;;0.80;;
72951;SDS011;61102;51.956;5.878;2022-08-21T16:10:36;3.50;;;0.63;;
72951;SDS011;61102;51.956;5.878;2022-08-21T16:13:04;4.57;;;0.80;;
72951;SDS011;61102;51.956;5.878;2022-08-21T16:15:32;5.55;;;1.00;;
72951;SDS011;61102;51.956;5.878;2022-08-21T16:17:58;5.65;;;0.98;;
72951;SDS011;61102;51.956;5.878;2022-08-21T16:20:26;5.65;;;0.90;;
72951;SDS011;61102;51.956;5.878;2022-08-21T16:22:53;6.20;;;0.90;;
72951;SDS011;61102;51.956;5.878;2022-08-21T16:25:21;4.20;;;0.77;;
72951;SDS011;61102;51.956;5.878;2022-08-21T16:27:50;3.70;;;0.88;;
72951;SDS011;61102;51.956;5.878;2022-08-21T16:30:19;4.22;;;0.70;;
72951;SDS011;61102;51.956;5.878;2022-08-21T16:32:46;3.25;;;0.70;;
72951;SDS011;61102;51.956;5.878;2022-08-21T16:35:14;3.35;;;0.77;;
72951;SDS011;61102;51.956;5.878;2022-08-21T16:37:41;5.88;;;1.00;;